Port Allen, Louisiana
Current Conditions -  °F | °C
As of 5:53 PM on Sunday 23 Nov 2014 (Local Time) from KBTR Reporting Station
Clear Clear  
Wind Chill: 69°   Ceiling: Unl
Heat Index: 69°   Visibility: 10mi
Dew Point: 62°   Wind: 17mph
Humidity: 78%   Direction: 200°SSW
Pressure: 29.62"   Gusts: NA
Location:  30.46°N, 91.21°W
Report Text: KBTR 232353Z 20015KT 10SM CLR 21/17 A2962 RMK AO2 SLP029 T02060167 10239 20200 51010 $
Loading
Personal Weather Stations






























Interactive Weather Map New forecast layout! Learn more

10-Day Weather Forecast

Advertisements
Track Severe Weather on mobile